Tallahassee, FL

5:09 PM EDT on September 25, 2016 (GMT -0400)
Tallahassee Regional | | Change Station

Elev 52 ft 30.39 °N, 84.35 °W | Updated 16 minutes ago

Thunderstorm
Thunderstorm
82 °F
Feels Like 86 °F
N
13
Wind Variable Wind from ENE

Today
High -- | Low -- °F
--% Chance of Precip.
Yesterday
High -- | Low -- °F
Precip. -- in
Pressure 29.99 in
Visibility 10.0 miles
Clouds Scattered Clouds 4000 ft
Mostly Cloudy 4800 ft
Mostly Cloudy 10000 ft
Mostly Cloudy 25000 ft
Heat Index 86 °F
Dew Point 71 °F
Humidity 69%
Rainfall 0.00 in
Snow Depth Not available.
7:27 AM 7:29 PM
Waning Crescent, 25% visible
METAR KTLH 252053Z 07011KT 10SM TS SCT040CB BKN048 BKN100 BKN250 28/22 A2999 RMK AO2 LTG DSNT ALQDS TSE20B21 SLP153 OCNL LTGIC NE-SE TS NE-SE MOV STNRY T02780217 55001
Pressure 29.99 in
Visibility 10.0 miles
Clouds Scattered Clouds 4000 ft
Mostly Cloudy 4800 ft
Mostly Cloudy 10000 ft
Mostly Cloudy 25000 ft
Heat Index 86 °F
Dew Point 71 °F
Humidity 69%
Rainfall 0.00 in
Snow Depth Not available.
7:27 AM 7:29 PM
Waning Crescent, 25% visible
METAR KTLH 252053Z 07011KT 10SM TS SCT040CB BKN048 BKN100 BKN250 28/22 A2999 RMK AO2 LTG DSNT ALQDS TSE20B21 SLP153 OCNL LTGIC NE-SE TS NE-SE MOV STNRY T02780217 55001

10-Day Weather Forecast

Almanac

Astronomy

Sep. 25, 2016 Rise Set
Actual Time
Civil Twilight
Nautical Twilight
Astronomical Twilight
Moon
Length of Visible Light
Length of Day
Tomorrow will be .
, % of the Moon is Illuminated

Today's Extremes

State Highs State Lows

Community

WunderPhotos

Upload Photos

1,941,731 photos uploaded!

WunderBlog® & News

Nearby

Air Quality

  Air Quality AQ Index Pollutant
Not available.

Snow Depth

Station Depth Elevation

Earthquake Activity

City Distance Mag. Time & Date
Minimum magnitude displayed is 2.5.

Coastal Water Temperatures

Place Temperature

Stations

Nearby Weather Stations

Station Location Temp. Windchill Dew Point Humidity Wind Precip. Elev Updated Type
                   

Watches & Warnings

There are currently no watches in effect.